Time;durP1;ratioP1;P1;durP2;ratioP2;P2;SDS_P1;SDS_P2;PMS_P1;PMS_P2;Temp;Humidity;BMP_temperature;BMP_pressure;BME280_temperature;BME280_humidity;BME280_pressure;Samples;Min_cycle;Max_cycle;Signal;HPM_P1;HPM_P2
2023/06/23 00:04:14;;;;;;;5.47;2.95;;;;;;;23.41;46.16;101859.13;16099049;19;130983;-53
2023/06/23 00:09:39;;;;;;;3.55;2.63;;;;;;;23.41;46.17;101862.78;16102963;19;130047;-52
2023/06/23 00:15:03;;;;;;;;;;;;;;;23.38;46.16;101868.06;16101077;19;130368;-55
2023/06/23 00:20:26;;;;;;;4.40;2.72;;;;;;;23.39;46.38;101875.28;16111963;19;129512;-56
2023/06/23 00:25:49;;;;;;;7.30;2.70;;;;;;;23.38;46.22;101882.84;16124230;19;130617;-55
2023/06/23 00:31:11;;;;;;;4.78;2.78;;;;;;;23.35;46.47;101886.16;16116106;19;134258;-53
2023/06/23 00:36:33;;;;;;;3.88;2.72;;;;;;;23.35;46.09;101897.31;16114946;19;135645;-55
2023/06/23 00:41:56;;;;;;;4.82;2.58;;;;;;;23.35;46.03;101888.94;16117709;19;130659;-54
2023/06/23 00:47:18;;;;;;;5.63;2.97;;;;;;;23.35;46.24;101902.91;16119634;19;131175;-53
2023/06/23 00:52:40;;;;;;;4.57;3.05;;;;;;;23.33;46.25;101911.53;16112947;19;130192;-56
2023/06/23 00:58:02;;;;;;;2.83;2.15;;;;;;;23.33;46.36;101911.53;16110485;19;130881;-55
2023/06/23 01:03:24;;;;;;;5.65;2.47;;;;;;;23.32;45.98;101926.59;16111462;19;131640;-56
2023/06/23 01:08:59;;;;;;;3.63;2.63;;;;;;;23.33;45.63;101933.88;16115814;19;130547;-53
2023/06/23 01:14:31;;;;;;;3.85;2.47;;;;;;;23.31;45.84;101924.91;16115908;19;130800;-55
2023/06/23 01:20:20;;;;;;;3.65;2.65;;;;;;;23.32;46.11;101932.19;16114925;19;130144;-54
2023/06/23 01:26:01;;;;;;;2.97;2.42;;;;;;;23.31;45.92;101943.63;16109186;19;129434;-55
2023/06/23 01:31:49;;;;;;;4.72;2.72;;;;;;;23.29;45.54;101946.63;16115423;19;129315;-55
2023/06/23 01:37:23;;;;;;;3.95;2.65;;;;;;;23.28;45.75;101964.50;16113227;19;131039;-56
2023/06/23 01:42:51;;;;;;;3.30;2.50;;;;;;;23.27;45.81;101973.97;16115215;19;130088;-57
2023/06/23 01:48:14;;;;;;;3.10;2.30;;;;;;;23.27;45.91;101989.88;16117473;19;130503;-56
2023/06/23 01:53:38;;;;;;;4.50;2.17;;;;;;;23.26;45.90;101989.06;16116058;19;134438;-55
2023/06/23 01:59:02;;;;;;;2.70;2.40;;;;;;;23.27;45.68;101992.69;16108488;19;131119;-57
2023/06/23 02:04:25;;;;;;;3.35;2.20;;;;;;;23.26;45.56;101993.78;16110915;19;130408;-55
2023/06/23 02:09:49;;;;;;;4.40;2.50;;;;;;;23.25;45.77;101992.06;16111909;19;130990;-56
2023/06/23 02:15:14;;;;;;;3.63;2.30;;;;;;;23.24;45.77;102005.19;16110576;19;129470;-55
2023/06/23 02:20:39;;;;;;;2.58;2.35;;;;;;;23.23;45.35;102011.88;16112772;19;130677;-54
2023/06/23 02:26:02;;;;;;;2.30;2.10;;;;;;;23.22;45.85;102020.50;16106943;19;130295;-55
2023/06/23 02:31:25;;;;;;;4.93;2.25;;;;;;;23.21;45.65;102028.03;16110174;19;129968;-58
2023/06/23 02:36:53;;;;;;;2.15;1.95;;;;;;;23.20;45.93;102038.34;16112883;19;130458;-53
2023/06/23 02:42:20;;;;;;;3.10;2.30;;;;;;;23.20;45.71;102043.09;16102535;19;130345;-55
2023/06/23 02:47:44;;;;;;;5.85;2.58;;;;;;;23.19;45.56;102033.88;16111304;19;130100;-54
2023/06/23 02:53:14;;;;;;;2.65;2.15;;;;;;;23.19;45.24;102028.28;16104093;19;131505;-55
2023/06/23 02:58:37;;;;;;;2.78;2.50;;;;;;;23.19;45.45;102027.44;16110672;19;130763;-57
2023/06/23 03:03:59;;;;;;;2.90;2.40;;;;;;;23.16;45.76;102023.19;16105552;19;130383;-55
2023/06/23 03:09:21;;;;;;;3.08;2.05;;;;;;;23.15;45.69;102038.25;16101683;19;130229;-55
2023/06/23 03:14:45;;;;;;;2.78;2.10;;;;;;;23.16;45.76;102048.31;16100094;19;129368;-56
2023/06/23 03:20:45;;;;;;;2.50;2.13;;;;;;;23.16;45.89;102050.25;16102214;19;130632;-56
2023/06/23 03:26:10;;;;;;;2.55;2.08;;;;;;;23.15;45.61;102059.72;16099033;19;130786;-55
2023/06/23 03:31:39;;;;;;;4.47;2.33;;;;;;;23.15;45.42;102059.72;16101628;19;131668;-52
2023/06/23 03:37:05;;;;;;;2.33;2.13;;;;;;;23.14;45.61;102060.84;16097079;19;130228;-54
2023/06/23 03:42:27;;;;;;;;;;;;;;;23.10;45.63;102059.66;16101767;19;130787;-52
2023/06/23 03:47:54;;;;;;;3.15;2.35;;;;;;;23.12;45.45;102065.81;16098176;19;131178;-55
2023/06/23 03:53:18;;;;;;;2.92;2.10;;;;;;;23.11;45.75;102066.91;16102016;19;130982;-56
2023/06/23 03:58:41;;;;;;;4.22;2.20;;;;;;;23.10;45.28;102068.00;16118649;19;133878;-57
2023/06/23 04:04:06;;;;;;;2.40;2.00;;;;;;;23.08;45.52;102065.47;16118225;19;131068;-52
2023/06/23 04:09:30;;;;;;;2.92;1.92;;;;;;;23.08;45.33;102065.47;16119698;19;131395;-54
2023/06/23 04:14:53;;;;;;;2.17;1.73;;;;;;;23.08;45.46;102081.38;16119151;19;130115;-56
2023/06/23 04:20:16;;;;;;;2.45;2.00;;;;;;;23.07;45.51;102074.09;16115051;19;131137;-57
2023/06/23 04:25:40;;;;;;;2.33;1.92;;;;;;;23.07;45.59;102074.09;16117086;19;130613;-54
2023/06/23 04:31:07;;;;;;;2.20;1.90;;;;;;;23.07;45.55;102088.03;16118307;19;130899;-55
2023/06/23 04:36:43;;;;;;;2.47;1.95;;;;;;;23.08;45.34;102093.38;16118536;19;129709;-53
2023/06/23 04:42:08;;;;;;;2.10;1.90;;;;;;;23.05;45.37;102102.25;16117756;19;130689;-57
2023/06/23 04:47:37;;;;;;;4.75;2.08;;;;;;;23.04;45.32;102104.19;16115712;19;129285;-56
2023/06/23 04:53:10;;;;;;;3.05;2.17;;;;;;;23.05;45.17;102100.31;16119296;19;129508;-52
2023/06/23 04:58:36;;;;;;;2.98;2.08;;;;;;;23.04;45.25;102103.34;16011266;19;2934135;-51
2023/06/23 05:04:00;;;;;;;2.40;2.17;;;;;;;23.04;45.27;102131.25;16119016;19;130614;-55
2023/06/23 05:09:22;;;;;;;2.38;1.98;;;;;;;23.04;45.25;102137.69;16122923;19;129906;-57
2023/06/23 05:14:47;;;;;;;3.35;2.10;;;;;;;23.04;45.20;102148.00;16121128;19;130279;-58
2023/06/23 05:20:11;;;;;;;4.65;2.50;;;;;;;23.03;45.04;102161.09;16119874;19;130099;-56
2023/06/23 05:25:34;;;;;;;2.92;2.20;;;;;;;23.03;45.28;102161.09;16118867;19;131225;-56
2023/06/23 05:30:58;;;;;;;2.72;2.20;;;;;;;23.03;45.02;102166.69;16116180;19;133586;-51
2023/06/23 05:36:22;;;;;;;3.58;2.00;;;;;;;23.03;45.08;102168.63;16115795;19;129852;-57
2023/06/23 05:41:44;;;;;;;5.30;2.47;;;;;;;23.03;45.04;102175.06;16109647;19;131335;-57
2023/06/23 05:47:10;;;;;;;2.70;2.00;;;;;;;23.05;45.27;102170.06;16111305;19;130638;-57
2023/06/23 05:52:33;;;;;;;4.97;2.80;;;;;;;23.05;45.19;102164.50;16107210;19;130193;-53
2023/06/23 05:58:00;;;;;;;3.75;2.70;;;;;;;23.07;45.24;102174.56;16116497;19;130576;-56
2023/06/23 06:03:42;;;;;;;9.73;5.00;;;;;;;23.05;45.41;102163.66;16115417;19;131417;-55
2023/06/23 06:09:07;;;;;;;23.75;10.48;;;;;;;23.02;45.30;102178.94;16106636;19;131328;-54
2023/06/23 06:14:30;;;;;;;21.23;13.55;;;;;;;23.02;45.48;102181.72;16108974;19;129927;-54
2023/06/23 06:19:58;;;;;;;23.42;16.02;;;;;;;23.00;45.22;102181.16;16108670;19;130342;-55
2023/06/23 06:25:21;;;;;;;33.22;16.27;;;;;;;23.00;45.77;102194.25;16103900;19;130878;-56
2023/06/23 06:30:43;;;;;;;36.58;14.80;;;;;;;23.01;46.02;102193.16;16110300;19;129537;-56
2023/06/23 06:36:08;;;;;;;33.15;18.05;;;;;;;23.00;45.76;102191.44;16105360;19;130811;-56
2023/06/23 06:41:31;;;;;;;28.05;18.02;;;;;;;22.99;45.68;102199.00;16108686;19;130813;-55
2023/06/23 06:46:54;;;;;;;32.42;18.77;;;;;;;23.01;46.31;102210.75;16110449;19;130250;-56
2023/06/23 06:52:18;;;;;;;29.70;21.17;;;;;;;22.99;46.28;102218.53;16114740;19;133831;-52
2023/06/23 06:57:44;;;;;;;30.08;21.45;;;;;;;22.98;46.22;102225.19;16110356;19;129937;-55
2023/06/23 07:03:06;;;;;;;25.35;20.50;;;;;;;22.98;46.26;102235.50;16110217;19;129977;-56
2023/06/23 07:08:28;;;;;;;28.65;21.27;;;;;;;22.98;46.56;102239.16;16108532;19;129897;-51
2023/06/23 07:13:50;;;;;;;29.52;22.33;;;;;;;22.98;46.55;102246.66;16113988;19;129883;-55
2023/06/23 07:19:13;;;;;;;29.73;22.08;;;;;;;22.99;46.69;102260.38;16111789;19;129675;-53
2023/06/23 07:24:35;;;;;;;34.00;24.27;;;;;;;22.98;46.75;102253.09;16110128;19;130512;-54
2023/06/23 07:29:58;;;;;;;34.53;22.60;;;;;;;22.99;46.76;102263.19;16107414;19;129516;-54
2023/06/23 07:35:20;;;;;;;35.28;22.08;;;;;;;22.98;46.75;102269.84;16112157;19;130185;-53
2023/06/23 07:40:42;;;;;;;25.63;19.40;;;;;;;23.01;46.92;102265.72;16110536;19;129848;-51
2023/06/23 07:46:04;;;;;;;29.17;19.45;;;;;;;23.04;47.14;102260.50;16111541;19;129460;-54
2023/06/23 07:51:26;;;;;;;25.08;18.88;;;;;;;23.10;47.27;102269.81;16108065;19;129525;-54
2023/06/23 07:56:48;;;;;;;30.92;20.65;;;;;;;23.14;47.35;102264.63;16108652;19;129413;-54
2023/06/23 08:02:10;;;;;;;25.40;17.52;;;;;;;23.17;47.19;102264.13;16105334;19;130095;-55
2023/06/23 08:07:35;;;;;;;25.55;17.55;;;;;;;23.19;46.97;102250.75;16107341;19;130083;-54
2023/06/23 08:12:57;;;;;;;23.65;15.32;;;;;;;23.21;46.94;102256.94;16107864;19;129694;-50
2023/06/23 08:18:19;;;;;;;23.00;16.15;;;;;;;23.22;46.75;102261.44;16095839;19;130398;-55
2023/06/23 08:23:43;;;;;;;21.25;14.98;;;;;;;23.26;47.10;102262.66;16104481;19;129831;-55
2023/06/23 08:29:05;;;;;;;22.73;14.73;;;;;;;23.27;47.12;102271.88;16104690;19;130893;-50
2023/06/23 08:34:29;;;;;;;24.45;14.13;;;;;;;23.29;46.83;102283.66;16104473;19;130621;-55
2023/06/23 08:39:51;;;;;;;23.38;14.38;;;;;;;23.27;46.93;102269.91;16108597;19;130920;-58
2023/06/23 08:45:17;;;;;;;20.58;13.20;;;;;;;23.29;47.05;102278.91;16117509;19;129560;-54
2023/06/23 08:50:39;;;;;;;21.50;11.90;;;;;;;23.32;46.72;102283.16;16116130;19;130356;-58
2023/06/23 08:56:02;;;;;;;18.23;12.63;;;;;;;23.37;47.66;102288.00;16122088;19;134070;-55
2023/06/23 09:01:24;;;;;;;27.80;14.45;;;;;;;23.28;47.11;102295.91;16118292;19;130242;-54
2023/06/23 09:06:46;;;;;;;21.10;13.60;;;;;;;23.25;46.85;102310.34;16124438;19;131257;-54
2023/06/23 09:12:10;;;;;;;20.05;12.73;;;;;;;23.27;46.83;102309.00;16117600;19;129647;-54
2023/06/23 09:17:33;;;;;;;18.85;11.07;;;;;;;23.35;46.88;102314.22;16111343;19;129902;-55
2023/06/23 09:22:57;;;;;;;14.18;10.77;;;;;;;23.48;46.94;102320.66;16114832;19;130479;-57
2023/06/23 09:28:25;;;;;;;15.23;10.80;;;;;;;23.60;46.51;102312.25;16120241;19;129410;-50
2023/06/23 09:33:47;;;;;;;15.20;9.27;;;;;;;23.67;46.55;102324.16;16117708;19;129831;-54
2023/06/23 09:39:14;;;;;;;11.25;7.57;;;;;;;23.75;46.34;102325.72;16122605;19;128884;-53
2023/06/23 09:44:38;;;;;;;13.10;7.70;;;;;;;23.80;46.09;102328.59;16117164;19;130125;-49
2023/06/23 09:50:00;;;;;;;10.00;6.70;;;;;;;23.85;46.15;102337.09;16117840;19;130243;-55
2023/06/23 09:55:22;;;;;;;8.77;6.43;;;;;;;23.89;46.19;102329.91;16117336;19;129444;-54
2023/06/23 10:00:44;;;;;;;9.30;5.85;;;;;;;23.91;45.67;102327.72;16115005;19;129700;-52
2023/06/23 10:06:06;;;;;;;9.25;5.15;;;;;;;23.93;45.82;102324.69;16117638;19;131820;-57
2023/06/23 10:11:33;;;;;;;8.40;5.18;;;;;;;23.95;45.56;102331.72;16115082;19;129622;-56
2023/06/23 10:16:57;;;;;;;7.97;4.38;;;;;;;23.93;45.42;102325.53;16116549;19;131780;-53
2023/06/23 10:22:20;;;;;;;5.22;3.85;;;;;;;23.94;45.85;102307.66;16118846;19;129803;-53
2023/06/23 10:27:44;;;;;;;4.88;3.30;;;;;;;23.94;45.54;102318.84;16115760;19;129607;-55
2023/06/23 10:33:14;;;;;;;4.70;3.30;;;;;;;23.94;45.84;102324.44;16117321;19;131010;-54
2023/06/23 10:38:42;;;;;;;6.55;3.30;;;;;;;23.94;45.47;102337.53;16115728;19;129697;-56
2023/06/23 10:44:05;;;;;;;4.97;3.10;;;;;;;23.94;45.43;102332.81;16110327;19;130808;-55
2023/06/23 10:49:26;;;;;;;5.05;2.92;;;;;;;23.93;45.57;102330.28;16112972;19;130787;-55
2023/06/23 10:54:49;;;;;;;7.28;3.33;;;;;;;23.94;45.35;102344.00;16113169;19;130752;-55
2023/06/23 11:00:13;;;;;;;5.97;2.92;;;;;;;23.96;45.54;102339.00;16118652;19;130838;-55
2023/06/23 11:05:40;;;;;;;6.53;3.03;;;;;;;23.95;45.48;102342.91;16112930;19;129561;-56
2023/06/23 11:11:05;;;;;;;3.83;2.60;;;;;;;23.95;45.29;102340.09;16107407;19;130483;-51
2023/06/23 11:16:34;;;;;;;5.90;2.70;;;;;;;23.98;45.28;102352.72;16112479;19;129654;-53
2023/06/23 11:22:08;;;;;;;5.15;3.00;;;;;;;24.00;45.25;102342.16;16114017;19;132881;-57
2023/06/23 11:27:30;;;;;;;4.93;2.75;;;;;;;24.00;45.30;102333.75;16110659;19;129539;-55
2023/06/23 11:33:30;;;;;;;6.72;2.95;;;;;;;24.03;44.91;102338.84;16108940;19;131348;-58
2023/06/23 11:38:55;;;;;;;6.63;2.95;;;;;;;24.03;44.81;102338.00;16109917;19;129376;-55
2023/06/23 11:44:21;;;;;;;5.40;2.90;;;;;;;24.06;44.80;102326.31;16107846;19;130073;-56
2023/06/23 11:49:43;;;;;;;3.17;2.53;;;;;;;24.07;44.52;102317.66;16106052;19;131195;-53
2023/06/23 11:55:05;;;;;;;3.83;2.60;;;;;;;24.10;44.45;102321.94;16102681;19;129701;-55
2023/06/23 12:00:28;;;;;;;5.57;2.80;;;;;;;24.10;44.34;102317.19;16105507;19;129429;-55
2023/06/23 12:05:50;;;;;;;3.80;2.53;;;;;;;24.13;44.68;102324.22;16107896;19;130421;-57
2023/06/23 12:11:12;;;;;;;5.97;2.90;;;;;;;24.16;44.66;102325.69;16107785;19;130628;-56
2023/06/23 12:16:36;;;;;;;3.80;2.33;;;;;;;24.18;44.33;102329.06;16113649;19;131816;-60
2023/06/23 12:21:59;;;;;;;4.75;2.97;;;;;;;24.18;44.18;102329.06;16125848;19;130907;-60
2023/06/23 12:27:22;;;;;;;4.07;2.33;;;;;;;24.22;44.18;102324.66;16127742;19;130665;-59
2023/06/23 12:32:43;;;;;;;3.28;2.25;;;;;;;24.26;44.05;102329.53;16125597;19;129746;-59
2023/06/23 12:38:09;;;;;;;5.00;2.35;;;;;;;24.27;43.95;102322.84;16125549;19;130087;-60
2023/06/23 12:43:32;;;;;;;3.92;2.53;;;;;;;24.27;43.66;102328.44;16123489;19;129689;-59
2023/06/23 12:48:55;;;;;;;5.25;2.65;;;;;;;24.27;43.90;102319.22;16126040;19;129583;-59
2023/06/23 12:54:17;;;;;;;5.13;2.55;;;;;;;24.27;43.91;102319.22;16125294;19;130524;-59
2023/06/23 12:59:39;;;;;;;3.80;2.60;;;;;;;24.26;43.90;102326.72;16128220;19;129653;-59
2023/06/23 13:05:01;;;;;;;3.65;2.92;;;;;;;24.25;44.04;102318.59;16124718;19;130625;-59
2023/06/23 13:10:23;;;;;;;3.50;2.80;;;;;;;24.26;43.96;102315.53;16119529;19;130496;-60
2023/06/23 13:15:47;;;;;;;3.75;2.65;;;;;;;24.23;43.98;102316.03;16117973;19;130454;-59
2023/06/23 13:21:09;;;;;;;4.85;2.78;;;;;;;24.25;43.88;102318.59;16120513;19;130549;-59
2023/06/23 13:26:31;;;;;;;3.45;2.40;;;;;;;24.26;43.90;102320.31;16113259;19;130998;-63
2023/06/23 13:31:53;;;;;;;4.68;2.70;;;;;;;24.29;43.75;102313.34;16119624;19;130515;-61
2023/06/23 13:37:15;;;;;;;3.72;2.50;;;;;;;24.33;43.87;102311.75;16119784;19;129812;-61
2023/06/23 13:42:37;;;;;;;3.28;2.65;;;;;;;24.35;43.99;102318.78;16121330;19;129695;-61
2023/06/23 13:47:59;;;;;;;4.55;2.72;;;;;;;24.37;43.79;102305.41;16116318;19;130860;-61
2023/06/23 13:53:21;;;;;;;3.45;2.47;;;;;;;24.40;43.50;102306.84;16113860;19;129687;-61
2023/06/23 13:58:43;;;;;;;3.03;2.70;;;;;;;24.43;43.62;102306.34;16109108;19;130639;-61
2023/06/23 14:04:05;;;;;;;3.42;2.80;;;;;;;24.43;43.64;102307.19;16112693;19;130401;-61
2023/06/23 14:09:27;;;;;;;2.45;2.25;;;;;;;24.45;43.67;102306.94;16112366;19;129782;-61
2023/06/23 14:14:49;;;;;;;4.55;2.47;;;;;;;24.47;43.82;102299.16;16115832;19;129602;-62
2023/06/23 14:20:11;;;;;;;4.53;2.60;;;;;;;24.47;43.86;102307.53;16114242;19;131474;-61
2023/06/23 14:25:33;;;;;;;3.10;2.65;;;;;;;24.47;43.63;102298.28;16116525;19;131452;-62
2023/06/23 14:30:56;;;;;;;3.63;2.58;;;;;;;24.47;43.86;102296.34;16116178;19;129897;-59
2023/06/23 14:36:18;;;;;;;3.55;2.85;;;;;;;24.45;43.31;102306.94;16115287;19;131332;-59
2023/06/23 14:41:40;;;;;;;3.67;2.88;;;;;;;24.43;43.22;102314.72;16114676;19;129559;-59
2023/06/23 14:47:02;;;;;;;3.90;2.55;;;;;;;24.42;43.59;102318.63;16114487;19;131343;-60
2023/06/23 14:52:24;;;;;;;4.13;2.50;;;;;;;24.41;43.68;102305.75;16114579;19;131027;-60
2023/06/23 14:57:46;;;;;;;2.40;2.20;;;;;;;24.42;43.21;102305.50;16112385;19;132095;-59
2023/06/23 15:03:09;;;;;;;2.67;2.15;;;;;;;24.44;43.41;102305.25;16114820;19;129533;-60
2023/06/23 15:08:31;;;;;;;4.13;2.22;;;;;;;24.46;43.80;102296.59;16114703;19;129414;-60
2023/06/23 15:13:55;;;;;;;2.70;2.43;;;;;;;24.47;43.48;102303.88;16116265;19;129745;-60
2023/06/23 15:19:18;;;;;;;2.70;2.20;;;;;;;24.48;43.52;102292.47;16116628;19;129612;-59
2023/06/23 15:24:40;;;;;;;2.60;2.40;;;;;;;24.50;43.49;102304.22;16112133;19;130145;-60
2023/06/23 15:30:02;;;;;;;4.05;2.72;;;;;;;24.50;43.56;102307.00;16115473;19;130591;-60
2023/06/23 15:35:23;;;;;;;3.22;2.35;;;;;;;24.51;43.62;102308.72;16114776;19;130863;-60
2023/06/23 15:40:45;;;;;;;2.90;2.25;;;;;;;24.51;43.39;102314.31;16113759;19;129547;-59
2023/06/23 15:46:08;;;;;;;3.40;2.30;;;;;;;24.50;43.56;102315.41;16109555;19;129870;-59
2023/06/23 15:51:30;;;;;;;2.55;2.30;;;;;;;24.47;43.25;102310.34;16123315;19;131181;-59
2023/06/23 15:56:52;;;;;;;3.90;2.45;;;;;;;24.46;43.22;102308.63;16128794;19;129554;-60
2023/06/23 16:02:14;;;;;;;3.13;2.17;;;;;;;24.43;43.44;102315.56;16127736;19;130716;-59
2023/06/23 16:07:36;;;;;;;2.50;2.30;;;;;;;24.40;43.32;102316.09;16124994;19;129439;-60
2023/06/23 16:12:58;;;;;;;2.53;2.20;;;;;;;24.37;43.70;102311.00;16126495;19;129727;-60
2023/06/23 16:18:20;;;;;;;2.53;2.30;;;;;;;24.36;43.69;102320.50;16126955;19;129821;-59
2023/06/23 16:23:42;;;;;;;3.72;2.25;;;;;;;24.35;43.71;102323.53;16125528;19;129373;-60
2023/06/23 16:29:04;;;;;;;2.42;2.05;;;;;;;24.34;43.71;102327.44;16130504;19;129736;-59
2023/06/23 16:34:26;;;;;;;2.92;2.58;;;;;;;24.33;43.41;102317.34;16127948;19;130288;-60
2023/06/23 16:39:48;;;;;;;2.40;2.20;;;;;;;24.32;43.58;102322.09;16125183;19;129696;-59
2023/06/23 16:45:09;;;;;;;2.35;2.13;;;;;;;24.32;43.57;102327.66;16126525;19;129483;-59
2023/06/23 16:50:31;;;;;;;2.28;2.00;;;;;;;24.34;43.57;102316.25;16128487;19;129079;-59
2023/06/23 16:55:56;;;;;;;4.17;2.60;;;;;;;24.37;43.65;102307.38;16111816;19;129678;-60
2023/06/23 17:01:18;;;;;;;2.25;2.05;;;;;;;24.40;43.73;102293.72;16120032;19;131018;-60
2023/06/23 17:06:41;;;;;;;5.57;2.00;;;;;;;24.43;43.54;102306.34;16120688;19;130040;-61
2023/06/23 17:12:03;;;;;;;2.85;2.47;;;;;;;24.45;43.20;102312.53;16117986;19;129929;-61
2023/06/23 17:17:38;;;;;;;2.43;2.17;;;;;;;24.49;43.28;102319.34;16120843;19;129805;-61
2023/06/23 17:23:01;;;;;;;2.55;2.33;;;;;;;24.47;43.13;102324.31;16123356;19;130509;-59
2023/06/23 17:28:23;;;;;;;4.72;2.40;;;;;;;24.51;43.13;102317.09;16120977;19;131556;-60
2023/06/23 17:33:45;;;;;;;2.67;2.47;;;;;;;24.55;43.27;102307.09;16125333;19;131458;-61
2023/06/23 17:39:07;;;;;;;4.32;2.63;;;;;;;24.62;43.25;102314.47;16122131;19;131092;-60
2023/06/23 17:44:29;;;;;;;2.65;2.45;;;;;;;24.66;43.18;102307.28;16120999;19;129339;-60
2023/06/23 17:49:51;;;;;;;2.92;2.63;;;;;;;24.69;43.29;102301.19;16121130;19;130145;-60
2023/06/23 17:55:13;;;;;;;12.07;3.30;;;;;;;24.72;42.78;102306.28;16120035;19;131158;-60
2023/06/23 18:00:36;;;;;;;3.75;2.80;;;;;;;24.73;42.76;102310.78;16117760;19;131530;-60
2023/06/23 18:05:58;;;;;;;9.75;2.72;;;;;;;24.74;42.94;102315.25;16119511;19;131199;-59
2023/06/23 18:11:21;;;;;;;6.25;3.10;;;;;;;24.73;42.72;102305.19;16114893;19;129330;-58
2023/06/23 18:16:43;;;;;;;5.75;2.50;;;;;;;24.70;42.87;102297.28;16114943;19;130968;-59
2023/06/23 18:22:05;;;;;;;6.00;3.03;;;;;;;24.69;42.98;102289.97;16114928;19;129610;-59
2023/06/23 18:27:27;;;;;;;3.58;2.70;;;;;;;24.66;42.87;102287.69;16118205;19;129517;-57
2023/06/23 18:32:49;;;;;;;4.05;2.72;;;;;;;24.64;42.81;102293.56;16114414;19;129080;-56
2023/06/23 18:38:11;;;;;;;6.57;3.63;;;;;;;24.57;43.17;102290.94;16114942;19;131737;-59
2023/06/23 18:43:33;;;;;;;5.88;3.30;;;;;;;24.56;43.01;102302.34;16113810;19;131450;-59
2023/06/23 18:48:55;;;;;;;9.15;3.50;;;;;;;24.52;43.12;102313.22;16115247;19;129492;-58
2023/06/23 18:54:17;;;;;;;14.43;3.85;;;;;;;24.47;43.46;102313.13;16112954;19;131145;-57
2023/06/23 18:59:39;;;;;;;12.35;3.63;;;;;;;24.46;43.40;102319.84;16111525;19;131203;-58
2023/06/23 19:05:01;;;;;;;8.18;3.50;;;;;;;24.42;43.45;102327.03;16114869;19;131335;-57
2023/06/23 19:10:23;;;;;;;11.88;3.85;;;;;;;24.38;43.74;102317.41;16110997;19;129573;-58
2023/06/23 19:15:45;;;;;;;5.90;3.15;;;;;;;24.36;43.52;102316.84;16111336;19;130064;-58
2023/06/23 19:21:07;;;;;;;5.30;3.35;;;;;;;24.34;43.90;102325.47;16109514;19;131916;-59
2023/06/23 19:26:30;;;;;;;5.40;3.22;;;;;;;24.32;43.57;102324.03;16107261;19;129351;-57
2023/06/23 19:31:52;;;;;;;6.28;3.10;;;;;;;24.29;43.80;102324.53;16108199;19;129978;-58
2023/06/23 19:37:13;;;;;;;5.72;3.25;;;;;;;24.27;43.75;102336.81;16107245;19;131849;-55
2023/06/23 19:42:35;;;;;;;6.32;3.22;;;;;;;24.26;44.01;102337.91;16105470;19;129734;-57
2023/06/23 19:47:57;;;;;;;4.32;3.13;;;;;;;24.23;43.88;102338.41;16104451;19;131055;-58
2023/06/23 19:53:22;;;;;;;6.40;3.35;;;;;;;24.23;43.88;102346.81;16106596;19;129715;-57
2023/06/23 19:58:44;;;;;;;4.23;3.00;;;;;;;24.21;43.67;102350.91;16103095;19;129901;-57
2023/06/23 20:04:07;;;;;;;4.78;3.15;;;;;;;24.21;43.98;102357.38;16106559;19;131093;-56
2023/06/23 20:09:29;;;;;;;7.95;3.13;;;;;;;24.18;44.32;102357.03;16104851;19;130317;-57
2023/06/23 20:14:51;;;;;;;5.22;2.90;;;;;;;24.19;44.02;102376.34;16108023;19;129622;-58
2023/06/23 20:20:13;;;;;;;5.65;3.10;;;;;;;24.17;43.95;102374.91;16101558;19;130655;-57
2023/06/23 20:25:35;;;;;;;4.95;2.90;;;;;;;24.16;44.20;102371.25;16101611;19;129624;-57
2023/06/23 20:30:57;;;;;;;3.65;2.75;;;;;;;24.15;43.99;102375.13;16105820;19;129573;-58
2023/06/23 20:36:19;;;;;;;3.75;3.00;;;;;;;24.15;44.02;102372.34;16109591;19;130516;-60
2023/06/23 20:41:41;;;;;;;5.05;3.05;;;;;;;24.14;43.77;102369.81;16122298;19;133082;-58
2023/06/23 20:47:03;;;;;;;4.20;3.00;;;;;;;24.13;44.18;102368.94;16117360;19;131500;-58
2023/06/23 20:52:26;;;;;;;8.20;3.05;;;;;;;24.11;43.88;102363.63;16117072;19;130916;-56
2023/06/23 20:57:48;;;;;;;5.57;2.90;;;;;;;24.12;44.17;102372.88;16118653;19;129513;-58
2023/06/23 21:03:10;;;;;;;5.00;3.00;;;;;;;24.10;44.19;102378.69;16119172;19;130682;-58
2023/06/23 21:08:35;;;;;;;3.10;2.60;;;;;;;24.10;44.00;102384.28;16115658;19;129580;-58
2023/06/23 21:13:57;;;;;;;4.25;2.97;;;;;;;24.08;44.18;102372.50;16122009;19;129941;-57
2023/06/23 21:19:19;;;;;;;3.58;2.70;;;;;;;24.07;44.35;102376.38;16114694;19;130528;-57
2023/06/23 21:24:41;;;;;;;6.03;2.85;;;;;;;24.08;44.42;102377.25;16113522;19;129991;-56
2023/06/23 21:30:03;;;;;;;3.13;2.83;;;;;;;24.06;44.26;102383.06;16114735;19;129828;-57
2023/06/23 21:35:25;;;;;;;3.42;2.90;;;;;;;24.06;43.85;102374.69;16119006;19;129815;-57
2023/06/23 21:40:47;;;;;;;4.15;2.90;;;;;;;24.04;44.17;102374.09;16110756;19;129022;-58
2023/06/23 21:46:10;;;;;;;3.22;2.72;;;;;;;24.05;44.13;102374.94;16114322;19;131872;-56
2023/06/23 21:51:31;;;;;;;5.88;2.47;;;;;;;24.04;43.99;102373.25;16114297;19;130952;-57
2023/06/23 21:56:53;;;;;;;5.15;2.97;;;;;;;24.03;44.29;102375.19;16113756;19;130951;-55
2023/06/23 22:02:16;;;;;;;5.57;3.05;;;;;;;24.01;44.07;102380.19;16112632;19;131373;-57
2023/06/23 22:07:37;;;;;;;3.35;2.70;;;;;;;24.02;44.20;102389.41;16109893;19;130019;-58
2023/06/23 22:13:00;;;;;;;5.47;2.70;;;;;;;24.03;44.10;102388.31;16110708;19;129773;-58
2023/06/23 22:18:21;;;;;;;4.40;2.78;;;;;;;24.01;44.09;102394.16;16104619;19;134368;-57
2023/06/23 22:24:03;;;;;;;3.75;2.42;;;;;;;24.01;44.14;102384.91;16107388;19;131870;-57
2023/06/23 22:29:25;;;;;;;3.97;2.67;;;;;;;24.00;44.24;102388.84;16113747;19;130785;-58
2023/06/23 22:34:47;;;;;;;4.75;2.90;;;;;;;23.99;44.11;102390.75;16106748;19;130275;-53
2023/06/23 22:40:11;;;;;;;4.13;2.60;;;;;;;23.99;43.99;102387.97;16113114;19;131408;-57
2023/06/23 22:45:33;;;;;;;6.20;2.67;;;;;;;23.98;44.21;102391.84;16113780;19;129867;-56
2023/06/23 22:50:55;;;;;;;3.55;2.72;;;;;;;23.97;44.10;102385.44;16110476;19;130221;-58
2023/06/23 22:56:19;;;;;;;3.42;2.40;;;;;;;23.96;44.21;102392.13;16111923;19;131291;-58
2023/06/23 23:01:42;;;;;;;2.75;2.40;;;;;;;23.95;44.09;102393.22;16111339;19;130367;-57
2023/06/23 23:07:05;;;;;;;3.35;2.63;;;;;;;23.95;44.06;102384.81;16103210;19;129461;-58
2023/06/23 23:12:26;;;;;;;3.30;2.80;;;;;;;23.93;44.47;102387.00;16109286;19;129519;-57
2023/06/23 23:17:51;;;;;;;5.38;2.47;;;;;;;23.92;44.21;102393.69;16107011;19;130917;-59
2023/06/23 23:23:13;;;;;;;3.23;2.43;;;;;;;23.93;44.08;102388.97;16102192;19;131932;-57
2023/06/23 23:28:35;;;;;;;3.17;2.63;;;;;;;23.92;44.30;102390.91;16105255;19;131283;-58
2023/06/23 23:34:00;;;;;;;3.15;2.38;;;;;;;23.90;44.16;102381.91;16104232;19;130869;-56
2023/06/23 23:39:23;;;;;;;3.05;2.58;;;;;;;23.90;44.37;102381.91;16104396;19;129976;-59
2023/06/23 23:44:45;;;;;;;2.88;2.30;;;;;;;23.90;44.11;102395.06;16105186;19;131466;-58
2023/06/23 23:50:07;;;;;;;2.75;2.25;;;;;;;23.89;44.22;102394.19;16105805;19;129488;-56
2023/06/23 23:55:29;;;;;;;3.97;2.42;;;;;;;23.88;44.08;102389.69;16101281;19;132044;-58
